N7510 KOQU-KBOS
Flight info
| Callsign | N7510 |
|---|---|
| Flight time | 0h -17m |
| Altitude | 5000 |
| Route | WOONS BOS |
| Aircraft | PA24/L-SDGRY/S |
Departure
| Time | 2026-04-12 02:31 |
|---|---|
| Airport | Quonset State Airport (KOQU) |
Arrival
| Time | 2026-04-12 02:14 |
|---|---|
| Airport | Boston Logan International Airport (KBOS) |
| Time | Latitude | Longitude | Altitude | Speed | Heading |
|---|---|---|---|---|---|
| 2026-04-12 02:14 | 42.37418 | -71.02156 | 21 ft | 0 kts | 166° |
| 2026-04-12 02:18 | 41.59994 | -71.41884 | 15 ft | 0 kts | 142° |
| 2026-04-12 02:25 | 41.59931 | -71.41816 | 14 ft | 0 kts | 140° |
| 2026-04-12 02:26 | 41.59929 | -71.41737 | 12 ft | 17 kts | 87° |
| 2026-04-12 02:26 | 41.59935 | -71.41482 | 11 ft | 20 kts | 135° |
| 2026-04-12 02:26 | 41.59790 | -71.41413 | 10 ft | 26 kts | 147° |
| 2026-04-12 02:27 | 41.59625 | -71.41265 | 14 ft | 31 kts | 145° |
| 2026-04-12 02:27 | 41.59479 | -71.41126 | 17 ft | 16 kts | 149° |
| 2026-04-12 02:27 | 41.59367 | -71.41035 | 15 ft | 10 kts | 139° |
| 2026-04-12 02:27 | 41.59297 | -71.40957 | 14 ft | 19 kts | 142° |
| 2026-04-12 02:28 | 41.59185 | -71.40853 | 13 ft | 13 kts | 146° |
| 2026-04-12 02:28 | 41.59083 | -71.40757 | 12 ft | 30 kts | 143° |
| 2026-04-12 02:28 | 41.58997 | -71.40676 | 14 ft | 0 kts | 145° |
| 2026-04-12 02:29 | 41.58984 | -71.40665 | 14 ft | 12 kts | 145° |
| 2026-04-12 02:29 | 41.58952 | -71.40627 | 13 ft | 0 kts | 117° |
| 2026-04-12 02:30 | 41.58979 | -71.40529 | 13 ft | 21 kts | 45° |
| 2026-04-12 02:30 | 41.59029 | -71.40531 | 13 ft | 0 kts | 324° |
| 2026-04-12 02:30 | 41.59177 | -71.40679 | 11 ft | 65 kts | 322° |
| 2026-04-12 02:31 | 41.59642 | -71.41061 | 179 ft | 79 kts | 324° |
| 2026-04-12 02:31 | 41.60080 | -71.41470 | 468 ft | 73 kts | 315° |
| 2026-04-12 02:31 | 41.60430 | -71.41958 | 714 ft | 75 kts | 313° |
| 2026-04-12 02:31 | 41.60824 | -71.42401 | 962 ft | 72 kts | 323° |
| 2026-04-12 02:32 | 41.61191 | -71.42820 | 1192 ft | 69 kts | 326° |
| 2026-04-12 02:32 | 41.61560 | -71.43204 | 1449 ft | 63 kts | 328° |
| 2026-04-12 02:32 | 41.61910 | -71.43560 | 1659 ft | 73 kts | 329° |
| 2026-04-12 02:32 | 41.62352 | -71.43965 | 2001 ft | 71 kts | 331° |
| 2026-04-12 02:33 | 41.62761 | -71.44344 | 2315 ft | 74 kts | 330° |
| 2026-04-12 02:33 | 41.63176 | -71.44731 | 2662 ft | 72 kts | 330° |
| 2026-04-12 02:33 | 41.63597 | -71.45119 | 2973 ft | 75 kts | 328° |
| 2026-04-12 02:33 | 41.64027 | -71.45502 | 3313 ft | 74 kts | 329° |
| 2026-04-12 02:34 | 41.64529 | -71.45726 | 3600 ft | 81 kts | 357° |
| 2026-04-12 02:34 | 41.65063 | -71.45748 | 3985 ft | 75 kts | 353° |
| 2026-04-12 02:34 | 41.65577 | -71.45790 | 4301 ft | 75 kts | 351° |
| 2026-04-12 02:34 | 41.66137 | -71.45850 | 4540 ft | 84 kts | 351° |
| 2026-04-12 02:35 | 41.66519 | -71.45894 | 4740 ft | 82 kts | 350° |
| 2026-04-12 02:35 | 41.67096 | -71.45975 | 4984 ft | 86 kts | 349° |
| 2026-04-12 02:35 | 41.68006 | -71.46117 | 5077 ft | 108 kts | 350° |
| 2026-04-12 02:35 | 41.68537 | -71.46206 | 5081 ft | 120 kts | 350° |
| 2026-04-12 02:36 | 41.69718 | -71.46405 | 5022 ft | 133 kts | 350° |
| 2026-04-12 02:36 | 41.70323 | -71.46508 | 5125 ft | 133 kts | 350° |
| 2026-04-12 02:36 | 41.71592 | -71.46716 | 5061 ft | 142 kts | 350° |
| 2026-04-12 02:36 | 41.72582 | -71.46883 | 5028 ft | 144 kts | 349° |
| 2026-04-12 02:37 | 41.73575 | -71.47054 | 5020 ft | 144 kts | 349° |
| 2026-04-12 02:37 | 41.74236 | -71.47167 | 5018 ft | 144 kts | 350° |
| 2026-04-12 02:37 | 41.75228 | -71.47337 | 5017 ft | 143 kts | 349° |
| 2026-04-12 02:37 | 41.76220 | -71.47504 | 5013 ft | 144 kts | 350° |
| 2026-04-12 02:38 | 41.77218 | -71.47669 | 5002 ft | 144 kts | 350° |
| 2026-04-12 02:38 | 41.78210 | -71.47838 | 5008 ft | 143 kts | 349° |
| 2026-04-12 02:38 | 41.79200 | -71.48008 | 5020 ft | 143 kts | 349° |
| 2026-04-12 02:38 | 41.80178 | -71.48172 | 5014 ft | 143 kts | 350° |
| 2026-04-12 02:39 | 41.81165 | -71.48339 | 5016 ft | 143 kts | 349° |
| 2026-04-12 02:39 | 41.82153 | -71.48509 | 5025 ft | 143 kts | 350° |
| 2026-04-12 02:39 | 41.83142 | -71.48677 | 5025 ft | 143 kts | 349° |
| 2026-04-12 02:39 | 41.84132 | -71.48847 | 5026 ft | 144 kts | 350° |
| 2026-04-12 02:40 | 41.85124 | -71.49013 | 5025 ft | 143 kts | 350° |
| 2026-04-12 02:40 | 41.86113 | -71.49182 | 5029 ft | 143 kts | 349° |
| 2026-04-12 02:40 | 41.87105 | -71.49341 | 5025 ft | 143 kts | 352° |
| 2026-04-12 02:40 | 41.88095 | -71.49500 | 5034 ft | 143 kts | 348° |
| 2026-04-12 02:41 | 41.89081 | -71.49686 | 5037 ft | 143 kts | 349° |
| 2026-04-12 02:41 | 41.90072 | -71.49855 | 5032 ft | 143 kts | 350° |
| 2026-04-12 02:41 | 41.91050 | -71.50021 | 5030 ft | 143 kts | 350° |
| 2026-04-12 02:41 | 41.92033 | -71.50186 | 5036 ft | 142 kts | 349° |
| 2026-04-12 02:42 | 41.93014 | -71.50350 | 5031 ft | 142 kts | 349° |
| 2026-04-12 02:42 | 41.93989 | -71.50518 | 5032 ft | 141 kts | 348° |
| 2026-04-12 02:42 | 41.94961 | -71.50485 | 5037 ft | 142 kts | 13° |
| 2026-04-12 02:43 | 41.96581 | -71.48798 | 5033 ft | 151 kts | 36° |
| 2026-04-12 02:43 | 41.97351 | -71.47828 | 5038 ft | 152 kts | 37° |
| 2026-04-12 02:43 | 41.98119 | -71.46849 | 5035 ft | 152 kts | 37° |
| 2026-04-12 02:43 | 41.98893 | -71.45872 | 5032 ft | 152 kts | 37° |
| 2026-04-12 02:44 | 41.99662 | -71.44894 | 5033 ft | 152 kts | 37° |
| 2026-04-12 02:44 | 42.00438 | -71.43923 | 5040 ft | 152 kts | 36° |
| 2026-04-12 02:44 | 42.01202 | -71.42955 | 5033 ft | 153 kts | 37° |
| 2026-04-12 02:44 | 42.01977 | -71.41976 | 5034 ft | 153 kts | 37° |
| 2026-04-12 02:45 | 42.02754 | -71.40995 | 5028 ft | 153 kts | 37° |
| 2026-04-12 02:45 | 42.03528 | -71.40007 | 5034 ft | 153 kts | 36° |
| 2026-04-12 02:45 | 42.04307 | -71.39027 | 5026 ft | 153 kts | 37° |
| 2026-04-12 02:45 | 42.05071 | -71.38032 | 5028 ft | 153 kts | 38° |
| 2026-04-12 02:46 | 42.05853 | -71.37064 | 5030 ft | 152 kts | 35° |
| 2026-04-12 02:46 | 42.06629 | -71.36091 | 5030 ft | 153 kts | 37° |
| 2026-04-12 02:46 | 42.07405 | -71.35113 | 5026 ft | 153 kts | 37° |
| 2026-04-12 02:46 | 42.08179 | -71.34129 | 5025 ft | 153 kts | 37° |
| 2026-04-12 02:47 | 42.08953 | -71.33142 | 5031 ft | 154 kts | 37° |
| 2026-04-12 02:47 | 42.09731 | -71.32147 | 5026 ft | 154 kts | 36° |
| 2026-04-12 02:47 | 42.10515 | -71.31161 | 5027 ft | 154 kts | 36° |
| 2026-04-12 02:47 | 42.11294 | -71.30169 | 5027 ft | 154 kts | 36° |
| 2026-04-12 02:48 | 42.12074 | -71.29179 | 5022 ft | 154 kts | 36° |
| 2026-04-12 02:48 | 42.12855 | -71.28189 | 5014 ft | 154 kts | 36° |
| 2026-04-12 02:48 | 42.13637 | -71.27197 | 5018 ft | 154 kts | 36° |
| 2026-04-12 02:48 | 42.14404 | -71.26219 | 5016 ft | 154 kts | 36° |
| 2026-04-12 02:49 | 42.15182 | -71.25232 | 5015 ft | 154 kts | 36° |
| 2026-04-12 02:49 | 42.15958 | -71.24241 | 5008 ft | 153 kts | 36° |
| 2026-04-12 02:49 | 42.16737 | -71.23252 | 5008 ft | 154 kts | 36° |
| 2026-04-12 02:49 | 42.17514 | -71.22264 | 5007 ft | 154 kts | 36° |
| 2026-04-12 02:50 | 42.18292 | -71.21273 | 5011 ft | 154 kts | 36° |
| 2026-04-12 02:50 | 42.19070 | -71.20279 | 5025 ft | 153 kts | 36° |
| 2026-04-12 02:50 | 42.19846 | -71.19293 | 5030 ft | 153 kts | 36° |
| 2026-04-12 02:50 | 42.20623 | -71.18301 | 5025 ft | 154 kts | 36° |
| 2026-04-12 02:51 | 42.21390 | -71.17326 | 5024 ft | 153 kts | 36° |
| 2026-04-12 02:51 | 42.22166 | -71.16333 | 5019 ft | 154 kts | 36° |
| 2026-04-12 02:51 | 42.22946 | -71.15339 | 5013 ft | 154 kts | 36° |
| 2026-04-12 02:51 | 42.23792 | -71.14453 | 4996 ft | 150 kts | 36° |
| 2026-04-12 02:52 | 42.24510 | -71.13405 | 4984 ft | 155 kts | 44° |
| 2026-04-12 02:52 | 42.24893 | -71.12062 | 4991 ft | 159 kts | 75° |
| 2026-04-12 02:52 | 42.25053 | -71.10545 | 4995 ft | 166 kts | 75° |
| 2026-04-12 02:52 | 42.25204 | -71.08995 | 4998 ft | 167 kts | 76° |
| 2026-04-12 02:53 | 42.25352 | -71.07435 | 4998 ft | 167 kts | 76° |
| 2026-04-12 02:53 | 42.25485 | -71.05978 | 4978 ft | 146 kts | 76° |
| 2026-04-12 02:53 | 42.25662 | -71.03518 | 4990 ft | 120 kts | 76° |
| 2026-04-12 02:54 | 42.25723 | -71.02432 | 4996 ft | 112 kts | 76° |
| 2026-04-12 02:54 | 42.25774 | -71.01419 | 4992 ft | 107 kts | 76° |
| 2026-04-12 02:54 | 42.25816 | -71.00431 | 4986 ft | 104 kts | 76° |
| 2026-04-12 02:54 | 42.25857 | -70.99455 | 4994 ft | 106 kts | 75° |
| 2026-04-12 02:55 | 42.25909 | -70.98431 | 5012 ft | 112 kts | 76° |
| 2026-04-12 02:55 | 42.25964 | -70.97359 | 5024 ft | 117 kts | 76° |
| 2026-04-12 02:55 | 42.26027 | -70.96236 | 5015 ft | 122 kts | 76° |
| 2026-04-12 02:55 | 42.26100 | -70.95093 | 5002 ft | 126 kts | 76° |
| 2026-04-12 02:56 | 42.26180 | -70.93905 | 4998 ft | 128 kts | 76° |
| 2026-04-12 02:56 | 42.26262 | -70.92710 | 4999 ft | 128 kts | 76° |
| 2026-04-12 02:56 | 42.26345 | -70.91516 | 4999 ft | 128 kts | 76° |
| 2026-04-12 02:56 | 42.26431 | -70.90317 | 5000 ft | 128 kts | 76° |
| 2026-04-12 02:57 | 42.26519 | -70.89122 | 5000 ft | 129 kts | 76° |
| 2026-04-12 02:57 | 42.26608 | -70.87912 | 5003 ft | 130 kts | 76° |
| 2026-04-12 02:57 | 42.26689 | -70.86689 | 4996 ft | 131 kts | 76° |
| 2026-04-12 02:57 | 42.26766 | -70.85455 | 4992 ft | 132 kts | 76° |
| 2026-04-12 02:58 | 42.26846 | -70.84203 | 4927 ft | 136 kts | 76° |
| 2026-04-12 02:58 | 42.26940 | -70.82869 | 4669 ft | 152 kts | 76° |
| 2026-04-12 02:58 | 42.27068 | -70.81370 | 4304 ft | 163 kts | 76° |
| 2026-04-12 02:58 | 42.27192 | -70.79861 | 4137 ft | 159 kts | 76° |
| 2026-04-12 02:59 | 42.27310 | -70.78411 | 4061 ft | 154 kts | 76° |
| 2026-04-12 02:59 | 42.27449 | -70.76967 | 3987 ft | 152 kts | 66° |
| 2026-04-12 02:59 | 42.28035 | -70.75894 | 3988 ft | 136 kts | 23° |
| 2026-04-12 02:59 | 42.28887 | -70.75636 | 3989 ft | 120 kts | 349° |
| 2026-04-12 03:00 | 42.29673 | -70.75742 | 3979 ft | 111 kts | 347° |
| 2026-04-12 03:00 | 42.30426 | -70.75873 | 3988 ft | 107 kts | 346° |
| 2026-04-12 03:00 | 42.31153 | -70.76004 | 3977 ft | 105 kts | 346° |
| 2026-04-12 03:00 | 42.31914 | -70.76149 | 3798 ft | 116 kts | 346° |
| 2026-04-12 03:01 | 42.32717 | -70.76306 | 3715 ft | 115 kts | 346° |
| 2026-04-12 03:01 | 42.33526 | -70.76474 | 3447 ft | 125 kts | 346° |
| 2026-04-12 03:01 | 42.34423 | -70.76706 | 3060 ft | 134 kts | 345° |
| 2026-04-12 03:01 | 42.35351 | -70.76963 | 2654 ft | 139 kts | 346° |
| 2026-04-12 03:02 | 42.36306 | -70.77231 | 2273 ft | 141 kts | 346° |
| 2026-04-12 03:02 | 42.37249 | -70.77517 | 2015 ft | 137 kts | 346° |
| 2026-04-12 03:02 | 42.38137 | -70.77789 | 1948 ft | 123 kts | 345° |
| 2026-04-12 03:02 | 42.38807 | -70.78385 | 1945 ft | 114 kts | 317° |
| 2026-04-12 03:03 | 42.39321 | -70.79174 | 1973 ft | 105 kts | 314° |
| 2026-04-12 03:03 | 42.39702 | -70.79962 | 2047 ft | 101 kts | 305° |
| 2026-04-12 03:03 | 42.39986 | -70.80852 | 2018 ft | 105 kts | 297° |
| 2026-04-12 03:03 | 42.40157 | -70.81805 | 2015 ft | 107 kts | 289° |
| 2026-04-12 03:04 | 42.40111 | -70.82798 | 2004 ft | 111 kts | 255° |
| 2026-04-12 03:04 | 42.39571 | -70.83608 | 2043 ft | 122 kts | 234° |
| 2026-04-12 03:04 | 42.38912 | -70.84400 | 2067 ft | 128 kts | 235° |
| 2026-04-12 03:04 | 42.38290 | -70.85292 | 2075 ft | 131 kts | 242° |
| 2026-04-12 03:05 | 42.37754 | -70.86283 | 2077 ft | 130 kts | 250° |
| 2026-04-12 03:05 | 42.37380 | -70.87364 | 2020 ft | 130 kts | 261° |
| 2026-04-12 03:05 | 42.37085 | -70.88383 | 1951 ft | 99 kts | 265° |
| 2026-04-12 03:05 | 42.36932 | -70.89144 | 1828 ft | 76 kts | 274° |
| 2026-04-12 03:06 | 42.36840 | -70.89870 | 1592 ft | 83 kts | 277° |
| 2026-04-12 03:06 | 42.36724 | -70.90624 | 1484 ft | 80 kts | 269° |
| 2026-04-12 03:06 | 42.36633 | -70.91345 | 1421 ft | 74 kts | 280° |
| 2026-04-12 03:06 | 42.36634 | -70.92008 | 1343 ft | 70 kts | 282° |
| 2026-04-12 03:07 | 42.36599 | -70.92669 | 1219 ft | 74 kts | 280° |
| 2026-04-12 03:07 | 42.36544 | -70.93399 | 1039 ft | 81 kts | 277° |
| 2026-04-12 03:07 | 42.36492 | -70.94178 | 880 ft | 81 kts | 275° |
| 2026-04-12 03:07 | 42.36434 | -70.94892 | 833 ft | 73 kts | 274° |
| 2026-04-12 03:08 | 42.36393 | -70.95562 | 759 ft | 71 kts | 272° |
| 2026-04-12 03:08 | 42.36334 | -70.96202 | 682 ft | 66 kts | 269° |
| 2026-04-12 03:08 | 42.36273 | -70.96840 | 550 ft | 74 kts | 271° |
| 2026-04-12 03:08 | 42.36194 | -70.97523 | 365 ft | 70 kts | 269° |
| 2026-04-12 03:09 | 42.36102 | -70.98149 | 152 ft | 64 kts | 269° |